sensor_id;sensor_type;location;lat;lon;timestamp;temperature;humidity
13606;DHT22;6874;52.084;5.090;2022-10-30T00:00:20;15.20;99.90
13606;DHT22;6874;52.084;5.090;2022-10-30T00:02:48;15.20;99.90
13606;DHT22;6874;52.084;5.090;2022-10-30T00:05:14;15.20;99.90
13606;DHT22;6874;52.084;5.090;2022-10-30T00:07:40;15.20;99.90
13606;DHT22;6874;52.084;5.090;2022-10-30T00:10:06;15.20;99.90
13606;DHT22;6874;52.084;5.090;2022-10-30T00:12:31;15.10;99.90
13606;DHT22;6874;52.084;5.090;2022-10-30T00:14:57;15.10;99.90
13606;DHT22;6874;52.084;5.090;2022-10-30T00:17:22;15.10;99.90
13606;DHT22;6874;52.084;5.090;2022-10-30T00:19:48;15.10;99.90
13606;DHT22;6874;52.084;5.090;2022-10-30T00:22:13;15.10;99.90
13606;DHT22;6874;52.084;5.090;2022-10-30T00:24:39;15.10;99.90
13606;DHT22;6874;52.084;5.090;2022-10-30T00:27:04;15.10;99.90
13606;DHT22;6874;52.084;5.090;2022-10-30T00:29:30;15.00;99.90
13606;DHT22;6874;52.084;5.090;2022-10-30T00:31:56;15.00;99.90
13606;DHT22;6874;52.084;5.090;2022-10-30T00:34:21;15.00;99.90
13606;DHT22;6874;52.084;5.090;2022-10-30T00:36:47;15.00;99.90
13606;DHT22;6874;52.084;5.090;2022-10-30T00:39:12;15.00;99.90
13606;DHT22;6874;52.084;5.090;2022-10-30T00:41:38;15.00;99.90
13606;DHT22;6874;52.084;5.090;2022-10-30T00:46:56;15.00;99.90
13606;DHT22;6874;52.084;5.090;2022-10-30T00:49:23;15.00;99.90
13606;DHT22;6874;52.084;5.090;2022-10-30T00:51:52;15.00;99.90
13606;DHT22;6874;52.084;5.090;2022-10-30T00:54:19;15.00;99.90
13606;DHT22;6874;52.084;5.090;2022-10-30T00:56:47;15.00;99.90
13606;DHT22;6874;52.084;5.090;2022-10-30T00:59:16;14.90;99.90
13606;DHT22;6874;52.084;5.090;2022-10-30T01:01:43;14.90;99.90
13606;DHT22;6874;52.084;5.090;2022-10-30T01:04:11;14.90;99.90
13606;DHT22;6874;52.084;5.090;2022-10-30T01:06:39;14.90;99.90
13606;DHT22;6874;52.084;5.090;2022-10-30T01:09:05;14.90;99.90
13606;DHT22;6874;52.084;5.090;2022-10-30T01:11:31;14.90;99.90
13606;DHT22;6874;52.084;5.090;2022-10-30T01:14:00;14.90;99.90
13606;DHT22;6874;52.084;5.090;2022-10-30T01:17:02;14.90;99.90
13606;DHT22;6874;52.084;5.090;2022-10-30T01:19:46;14.80;99.90
13606;DHT22;6874;52.084;5.090;2022-10-30T01:22:36;14.80;99.90
13606;DHT22;6874;52.084;5.090;2022-10-30T01:28:15;14.80;99.90
13606;DHT22;6874;52.084;5.090;2022-10-30T01:30:51;14.80;99.90
13606;DHT22;6874;52.084;5.090;2022-10-30T01:36:42;14.80;99.90
13606;DHT22;6874;52.084;5.090;2022-10-30T01:39:18;14.80;99.90
13606;DHT22;6874;52.084;5.090;2022-10-30T01:41:48;14.70;99.90
13606;DHT22;6874;52.084;5.090;2022-10-30T01:44:29;14.70;99.90
13606;DHT22;6874;52.084;5.090;2022-10-30T01:47:11;14.70;99.90
13606;DHT22;6874;52.084;5.090;2022-10-30T01:52:56;14.70;99.90
13606;DHT22;6874;52.084;5.090;2022-10-30T01:58:07;14.60;99.90
13606;DHT22;6874;52.084;5.090;2022-10-30T02:00:41;14.60;99.90
13606;DHT22;6874;52.084;5.090;2022-10-30T02:03:08;14.60;99.90
13606;DHT22;6874;52.084;5.090;2022-10-30T02:08:02;14.60;99.90
13606;DHT22;6874;52.084;5.090;2022-10-30T02:10:29;14.60;99.90
13606;DHT22;6874;52.084;5.090;2022-10-30T02:12:56;14.60;99.90
13606;DHT22;6874;52.084;5.090;2022-10-30T02:15:21;14.60;99.90
13606;DHT22;6874;52.084;5.090;2022-10-30T02:17:47;14.50;99.90
13606;DHT22;6874;52.084;5.090;2022-10-30T02:20:19;14.50;99.90
13606;DHT22;6874;52.084;5.090;2022-10-30T02:22:45;14.50;99.90
13606;DHT22;6874;52.084;5.090;2022-10-30T02:25:12;14.50;99.90
13606;DHT22;6874;52.084;5.090;2022-10-30T02:27:38;14.50;99.90
13606;DHT22;6874;52.084;5.090;2022-10-30T02:30:03;14.50;99.90
13606;DHT22;6874;52.084;5.090;2022-10-30T02:32:29;14.50;99.90
13606;DHT22;6874;52.084;5.090;2022-10-30T02:34:55;14.50;99.90
13606;DHT22;6874;52.084;5.090;2022-10-30T02:37:20;14.50;99.90
13606;DHT22;6874;52.084;5.090;2022-10-30T02:39:46;14.50;99.90
13606;DHT22;6874;52.084;5.090;2022-10-30T02:42:11;14.50;99.90
13606;DHT22;6874;52.084;5.090;2022-10-30T02:44:37;14.40;99.90
13606;DHT22;6874;52.084;5.090;2022-10-30T02:47:02;14.40;99.90
13606;DHT22;6874;52.084;5.090;2022-10-30T02:49:28;14.40;99.90
13606;DHT22;6874;52.084;5.090;2022-10-30T02:51:53;14.40;99.90
13606;DHT22;6874;52.084;5.090;2022-10-30T02:54:19;14.40;99.90
13606;DHT22;6874;52.084;5.090;2022-10-30T02:56:44;14.50;99.90
13606;DHT22;6874;52.084;5.090;2022-10-30T02:59:10;14.40;99.90
13606;DHT22;6874;52.084;5.090;2022-10-30T03:01:36;14.40;99.90
13606;DHT22;6874;52.084;5.090;2022-10-30T03:04:01;14.40;99.90
13606;DHT22;6874;52.084;5.090;2022-10-30T03:06:27;14.30;99.90
13606;DHT22;6874;52.084;5.090;2022-10-30T03:08:53;14.40;99.90
13606;DHT22;6874;52.084;5.090;2022-10-30T03:11:19;14.30;99.90
13606;DHT22;6874;52.084;5.090;2022-10-30T03:13:46;14.30;99.90
13606;DHT22;6874;52.084;5.090;2022-10-30T03:16:17;14.30;99.90
13606;DHT22;6874;52.084;5.090;2022-10-30T03:18:43;14.30;99.90
13606;DHT22;6874;52.084;5.090;2022-10-30T03:21:13;14.30;99.90
13606;DHT22;6874;52.084;5.090;2022-10-30T03:23:39;14.30;99.90
13606;DHT22;6874;52.084;5.090;2022-10-30T03:26:04;14.20;99.90
13606;DHT22;6874;52.084;5.090;2022-10-30T03:28:31;14.20;99.90
13606;DHT22;6874;52.084;5.090;2022-10-30T03:30:58;14.20;99.90
13606;DHT22;6874;52.084;5.090;2022-10-30T03:33:24;14.20;99.90
13606;DHT22;6874;52.084;5.090;2022-10-30T03:35:50;14.20;99.90
13606;DHT22;6874;52.084;5.090;2022-10-30T03:38:16;14.10;99.90
13606;DHT22;6874;52.084;5.090;2022-10-30T03:40:41;14.10;99.90
13606;DHT22;6874;52.084;5.090;2022-10-30T03:43:07;14.10;99.90
13606;DHT22;6874;52.084;5.090;2022-10-30T03:45:33;14.10;99.90
13606;DHT22;6874;52.084;5.090;2022-10-30T03:48:04;14.10;99.90
13606;DHT22;6874;52.084;5.090;2022-10-30T03:50:30;14.10;99.90
13606;DHT22;6874;52.084;5.090;2022-10-30T03:52:57;14.10;99.90
13606;DHT22;6874;52.084;5.090;2022-10-30T03:55:23;14.10;99.90
13606;DHT22;6874;52.084;5.090;2022-10-30T03:57:49;14.00;99.90
13606;DHT22;6874;52.084;5.090;2022-10-30T04:00:15;14.00;99.90
13606;DHT22;6874;52.084;5.090;2022-10-30T04:02:45;14.00;99.90
13606;DHT22;6874;52.084;5.090;2022-10-30T04:05:11;14.00;99.90
13606;DHT22;6874;52.084;5.090;2022-10-30T04:07:36;14.00;99.90
13606;DHT22;6874;52.084;5.090;2022-10-30T04:10:02;14.00;99.90
13606;DHT22;6874;52.084;5.090;2022-10-30T04:12:28;14.00;99.90
13606;DHT22;6874;52.084;5.090;2022-10-30T04:14:53;14.00;99.90
13606;DHT22;6874;52.084;5.090;2022-10-30T04:17:19;13.90;99.90
13606;DHT22;6874;52.084;5.090;2022-10-30T04:19:44;13.90;99.90
13606;DHT22;6874;52.084;5.090;2022-10-30T04:22:10;13.90;99.90
13606;DHT22;6874;52.084;5.090;2022-10-30T04:24:35;13.90;99.90
13606;DHT22;6874;52.084;5.090;2022-10-30T04:27:04;13.90;99.90
13606;DHT22;6874;52.084;5.090;2022-10-30T04:29:29;13.90;99.90
13606;DHT22;6874;52.084;5.090;2022-10-30T04:31:55;13.90;99.90
13606;DHT22;6874;52.084;5.090;2022-10-30T04:34:20;13.90;99.90
13606;DHT22;6874;52.084;5.090;2022-10-30T04:36:46;13.90;99.90
13606;DHT22;6874;52.084;5.090;2022-10-30T04:39:11;13.90;99.90
13606;DHT22;6874;52.084;5.090;2022-10-30T04:41:37;13.80;99.90
13606;DHT22;6874;52.084;5.090;2022-10-30T04:44:02;13.80;99.90
13606;DHT22;6874;52.084;5.090;2022-10-30T04:46:28;13.80;99.90
13606;DHT22;6874;52.084;5.090;2022-10-30T04:48:53;13.80;99.90
13606;DHT22;6874;52.084;5.090;2022-10-30T04:51:19;13.80;99.90
13606;DHT22;6874;52.084;5.090;2022-10-30T04:53:44;13.80;99.90
13606;DHT22;6874;52.084;5.090;2022-10-30T04:56:10;13.80;99.90
13606;DHT22;6874;52.084;5.090;2022-10-30T04:58:36;13.80;99.90
13606;DHT22;6874;52.084;5.090;2022-10-30T05:01:04;13.70;99.90
13606;DHT22;6874;52.084;5.090;2022-10-30T05:03:30;13.70;99.90
13606;DHT22;6874;52.084;5.090;2022-10-30T05:06:01;13.70;99.90
13606;DHT22;6874;52.084;5.090;2022-10-30T05:08:28;13.70;99.90
13606;DHT22;6874;52.084;5.090;2022-10-30T05:10:55;13.70;99.90
13606;DHT22;6874;52.084;5.090;2022-10-30T05:13:21;13.70;99.90
13606;DHT22;6874;52.084;5.090;2022-10-30T05:15:46;13.70;99.90
13606;DHT22;6874;52.084;5.090;2022-10-30T05:18:12;13.60;99.90
13606;DHT22;6874;52.084;5.090;2022-10-30T05:20:38;13.60;99.90
13606;DHT22;6874;52.084;5.090;2022-10-30T05:23:04;13.60;99.90
13606;DHT22;6874;52.084;5.090;2022-10-30T05:25:29;13.60;99.90
13606;DHT22;6874;52.084;5.090;2022-10-30T05:28:02;13.60;99.90
13606;DHT22;6874;52.084;5.090;2022-10-30T05:30:30;13.60;99.90
13606;DHT22;6874;52.084;5.090;2022-10-30T05:33:08;13.50;99.90
13606;DHT22;6874;52.084;5.090;2022-10-30T05:35:34;13.60;99.90
13606;DHT22;6874;52.084;5.090;2022-10-30T05:38:01;13.50;99.90
13606;DHT22;6874;52.084;5.090;2022-10-30T05:40:27;13.50;99.90
13606;DHT22;6874;52.084;5.090;2022-10-30T05:42:53;13.50;99.90
13606;DHT22;6874;52.084;5.090;2022-10-30T05:45:19;13.50;99.90
13606;DHT22;6874;52.084;5.090;2022-10-30T05:47:54;13.50;99.90
13606;DHT22;6874;52.084;5.090;2022-10-30T05:50:19;13.50;99.90
13606;DHT22;6874;52.084;5.090;2022-10-30T05:52:45;13.40;99.90
13606;DHT22;6874;52.084;5.090;2022-10-30T05:55:10;13.50;99.90
13606;DHT22;6874;52.084;5.090;2022-10-30T05:57:36;13.40;99.90
13606;DHT22;6874;52.084;5.090;2022-10-30T06:00:02;13.40;99.90
13606;DHT22;6874;52.084;5.090;2022-10-30T06:02:28;13.40;99.90
13606;DHT22;6874;52.084;5.090;2022-10-30T06:04:53;13.40;99.90
13606;DHT22;6874;52.084;5.090;2022-10-30T06:07:19;13.40;99.90
13606;DHT22;6874;52.084;5.090;2022-10-30T06:09:44;13.30;99.90
13606;DHT22;6874;52.084;5.090;2022-10-30T06:12:10;13.30;99.90
13606;DHT22;6874;52.084;5.090;2022-10-30T06:14:35;13.30;99.90
13606;DHT22;6874;52.084;5.090;2022-10-30T06:17:01;13.30;99.90
13606;DHT22;6874;52.084;5.090;2022-10-30T06:19:26;13.30;99.90
13606;DHT22;6874;52.084;5.090;2022-10-30T06:21:52;13.30;99.90
13606;DHT22;6874;52.084;5.090;2022-10-30T06:24:19;13.30;99.90
13606;DHT22;6874;52.084;5.090;2022-10-30T06:26:44;13.20;99.90
13606;DHT22;6874;52.084;5.090;2022-10-30T06:29:10;13.20;99.90
13606;DHT22;6874;52.084;5.090;2022-10-30T06:31:35;13.20;99.90
13606;DHT22;6874;52.084;5.090;2022-10-30T06:34:01;13.20;99.90
13606;DHT22;6874;52.084;5.090;2022-10-30T06:36:26;13.10;99.90
13606;DHT22;6874;52.084;5.090;2022-10-30T06:38:52;13.20;99.90
13606;DHT22;6874;52.084;5.090;2022-10-30T06:41:17;13.20;99.90
13606;DHT22;6874;52.084;5.090;2022-10-30T06:43:43;13.10;99.90
13606;DHT22;6874;52.084;5.090;2022-10-30T06:46:08;13.10;99.90
13606;DHT22;6874;52.084;5.090;2022-10-30T06:48:34;13.10;99.90
13606;DHT22;6874;52.084;5.090;2022-10-30T06:51:00;13.10;99.90
13606;DHT22;6874;52.084;5.090;2022-10-30T06:53:27;13.10;99.90
13606;DHT22;6874;52.084;5.090;2022-10-30T06:55:57;13.00;99.90
13606;DHT22;6874;52.084;5.090;2022-10-30T06:58:23;13.00;99.90
13606;DHT22;6874;52.084;5.090;2022-10-30T07:00:48;13.00;99.90
13606;DHT22;6874;52.084;5.090;2022-10-30T07:03:14;13.00;99.90
13606;DHT22;6874;52.084;5.090;2022-10-30T07:05:39;13.00;99.90
13606;DHT22;6874;52.084;5.090;2022-10-30T07:08:05;13.00;99.90
13606;DHT22;6874;52.084;5.090;2022-10-30T07:10:31;13.00;99.90
13606;DHT22;6874;52.084;5.090;2022-10-30T07:12:56;13.00;99.90
13606;DHT22;6874;52.084;5.090;2022-10-30T07:15:23;13.00;99.90
13606;DHT22;6874;52.084;5.090;2022-10-30T07:17:57;13.00;99.90
13606;DHT22;6874;52.084;5.090;2022-10-30T07:20:24;12.90;99.90
13606;DHT22;6874;52.084;5.090;2022-10-30T07:22:50;12.90;99.90
13606;DHT22;6874;52.084;5.090;2022-10-30T07:25:15;12.90;99.90
13606;DHT22;6874;52.084;5.090;2022-10-30T07:27:49;12.90;99.90
13606;DHT22;6874;52.084;5.090;2022-10-30T07:30:17;12.90;99.90
13606;DHT22;6874;52.084;5.090;2022-10-30T07:32:43;12.90;99.90
13606;DHT22;6874;52.084;5.090;2022-10-30T07:35:10;12.90;99.90
13606;DHT22;6874;52.084;5.090;2022-10-30T07:37:36;12.90;99.90
13606;DHT22;6874;52.084;5.090;2022-10-30T07:40:02;12.90;99.90
13606;DHT22;6874;52.084;5.090;2022-10-30T07:42:28;12.90;99.90
13606;DHT22;6874;52.084;5.090;2022-10-30T07:44:53;13.00;99.90
13606;DHT22;6874;52.084;5.090;2022-10-30T07:47:19;13.00;99.90
13606;DHT22;6874;52.084;5.090;2022-10-30T07:49:44;12.90;99.90
13606;DHT22;6874;52.084;5.090;2022-10-30T07:52:10;13.00;99.90
13606;DHT22;6874;52.084;5.090;2022-10-30T07:54:35;13.00;99.90
13606;DHT22;6874;52.084;5.090;2022-10-30T07:57:01;13.00;99.90
13606;DHT22;6874;52.084;5.090;2022-10-30T07:59:27;13.00;99.90
13606;DHT22;6874;52.084;5.090;2022-10-30T08:01:53;13.00;99.90
13606;DHT22;6874;52.084;5.090;2022-10-30T08:04:18;13.00;99.90
13606;DHT22;6874;52.084;5.090;2022-10-30T08:06:44;13.00;99.90
13606;DHT22;6874;52.084;5.090;2022-10-30T08:09:09;13.10;99.90
13606;DHT22;6874;52.084;5.090;2022-10-30T08:11:35;13.10;99.90
13606;DHT22;6874;52.084;5.090;2022-10-30T08:14:00;13.10;99.90
13606;DHT22;6874;52.084;5.090;2022-10-30T08:16:26;13.10;99.90
13606;DHT22;6874;52.084;5.090;2022-10-30T08:18:52;13.10;99.90
13606;DHT22;6874;52.084;5.090;2022-10-30T08:21:17;13.10;99.90
13606;DHT22;6874;52.084;5.090;2022-10-30T08:23:43;13.10;99.90
13606;DHT22;6874;52.084;5.090;2022-10-30T08:26:09;13.10;99.90
13606;DHT22;6874;52.084;5.090;2022-10-30T08:28:34;13.20;99.90
13606;DHT22;6874;52.084;5.090;2022-10-30T08:31:00;13.20;99.90
13606;DHT22;6874;52.084;5.090;2022-10-30T08:33:27;13.20;99.90
13606;DHT22;6874;52.084;5.090;2022-10-30T08:35:55;13.20;99.90
13606;DHT22;6874;52.084;5.090;2022-10-30T08:38:21;13.20;99.90
13606;DHT22;6874;52.084;5.090;2022-10-30T08:40:47;13.30;99.90
13606;DHT22;6874;52.084;5.090;2022-10-30T08:43:13;13.30;99.90
13606;DHT22;6874;52.084;5.090;2022-10-30T08:45:39;13.30;99.90
13606;DHT22;6874;52.084;5.090;2022-10-30T08:48:05;13.30;99.90
13606;DHT22;6874;52.084;5.090;2022-10-30T08:50:32;13.30;99.90
13606;DHT22;6874;52.084;5.090;2022-10-30T08:53:16;13.30;99.90
13606;DHT22;6874;52.084;5.090;2022-10-30T08:55:41;13.30;99.90
13606;DHT22;6874;52.084;5.090;2022-10-30T08:58:07;13.40;99.90
13606;DHT22;6874;52.084;5.090;2022-10-30T09:00:33;13.40;99.90
13606;DHT22;6874;52.084;5.090;2022-10-30T09:02:59;13.40;99.90
13606;DHT22;6874;52.084;5.090;2022-10-30T09:05:25;13.40;99.90
13606;DHT22;6874;52.084;5.090;2022-10-30T09:07:55;13.50;99.90
13606;DHT22;6874;52.084;5.090;2022-10-30T09:10:21;13.50;99.90
13606;DHT22;6874;52.084;5.090;2022-10-30T09:12:47;13.50;99.90
13606;DHT22;6874;52.084;5.090;2022-10-30T09:15:12;13.50;99.90
13606;DHT22;6874;52.084;5.090;2022-10-30T09:17:38;13.50;99.90
13606;DHT22;6874;52.084;5.090;2022-10-30T09:20:04;13.50;99.90
13606;DHT22;6874;52.084;5.090;2022-10-30T09:22:29;13.60;99.90
13606;DHT22;6874;52.084;5.090;2022-10-30T09:24:55;13.60;99.90
13606;DHT22;6874;52.084;5.090;2022-10-30T09:27:20;13.60;99.90
13606;DHT22;6874;52.084;5.090;2022-10-30T09:29:46;13.70;99.90
13606;DHT22;6874;52.084;5.090;2022-10-30T09:32:11;13.70;99.90
13606;DHT22;6874;52.084;5.090;2022-10-30T09:34:37;13.70;99.90
13606;DHT22;6874;52.084;5.090;2022-10-30T09:37:04;13.70;99.90
13606;DHT22;6874;52.084;5.090;2022-10-30T09:39:29;13.80;99.90
13606;DHT22;6874;52.084;5.090;2022-10-30T09:47:39;13.90;99.90
13606;DHT22;6874;52.084;5.090;2022-10-30T09:56:05;14.00;99.90
13606;DHT22;6874;52.084;5.090;2022-10-30T10:01:26;14.10;99.90
13606;DHT22;6874;52.084;5.090;2022-10-30T10:04:15;14.10;99.90
13606;DHT22;6874;52.084;5.090;2022-10-30T10:06:46;14.10;99.90
13606;DHT22;6874;52.084;5.090;2022-10-30T10:09:20;14.20;99.90
13606;DHT22;6874;52.084;5.090;2022-10-30T10:12:08;14.20;99.90
13606;DHT22;6874;52.084;5.090;2022-10-30T10:14:39;14.30;99.90
13606;DHT22;6874;52.084;5.090;2022-10-30T10:20:34;14.30;99.90
13606;DHT22;6874;52.084;5.090;2022-10-30T10:23:08;14.40;99.90
13606;DHT22;6874;52.084;5.090;2022-10-30T10:25:40;14.40;99.90
13606;DHT22;6874;52.084;5.090;2022-10-30T10:31:17;14.50;99.90
13606;DHT22;6874;52.084;5.090;2022-10-30T10:34:05;14.50;99.90
13606;DHT22;6874;52.084;5.090;2022-10-30T10:36:58;14.60;99.90
13606;DHT22;6874;52.084;5.090;2022-10-30T10:39:45;14.60;99.90
13606;DHT22;6874;52.084;5.090;2022-10-30T10:42:57;14.70;99.90
13606;DHT22;6874;52.084;5.090;2022-10-30T10:45:36;14.70;99.90
13606;DHT22;6874;52.084;5.090;2022-10-30T10:48:20;14.80;99.90
13606;DHT22;6874;52.084;5.090;2022-10-30T10:53:45;14.80;99.90
13606;DHT22;6874;52.084;5.090;2022-10-30T10:56:13;14.90;99.90
13606;DHT22;6874;52.084;5.090;2022-10-30T10:58:50;14.90;99.90
13606;DHT22;6874;52.084;5.090;2022-10-30T11:01:22;15.00;99.90
13606;DHT22;6874;52.084;5.090;2022-10-30T11:04:04;15.00;99.90
13606;DHT22;6874;52.084;5.090;2022-10-30T11:06:39;15.00;99.90
13606;DHT22;6874;52.084;5.090;2022-10-30T11:09:17;15.10;99.90
13606;DHT22;6874;52.084;5.090;2022-10-30T11:11:50;15.10;99.90
13606;DHT22;6874;52.084;5.090;2022-10-30T11:14:21;15.10;99.90
13606;DHT22;6874;52.084;5.090;2022-10-30T11:17:10;15.20;99.90
13606;DHT22;6874;52.084;5.090;2022-10-30T11:19:37;15.20;99.90
13606;DHT22;6874;52.084;5.090;2022-10-30T11:22:07;15.30;99.90
13606;DHT22;6874;52.084;5.090;2022-10-30T11:24:37;15.30;99.90
13606;DHT22;6874;52.084;5.090;2022-10-30T11:32:20;15.40;99.90
13606;DHT22;6874;52.084;5.090;2022-10-30T11:35:09;15.50;99.90
13606;DHT22;6874;52.084;5.090;2022-10-30T11:37:41;15.50;99.90
13606;DHT22;6874;52.084;5.090;2022-10-30T11:42:37;15.60;99.90
13606;DHT22;6874;52.084;5.090;2022-10-30T11:45:04;15.70;99.90
13606;DHT22;6874;52.084;5.090;2022-10-30T11:47:37;15.70;99.90
13606;DHT22;6874;52.084;5.090;2022-10-30T11:50:06;15.80;99.90
13606;DHT22;6874;52.084;5.090;2022-10-30T11:52:40;15.80;99.90
13606;DHT22;6874;52.084;5.090;2022-10-30T11:58:01;16.00;99.90
13606;DHT22;6874;52.084;5.090;2022-10-30T12:00:33;16.10;99.90
13606;DHT22;6874;52.084;5.090;2022-10-30T12:03:00;16.30;99.90
13606;DHT22;6874;52.084;5.090;2022-10-30T12:08:16;16.60;99.90
13606;DHT22;6874;52.084;5.090;2022-10-30T12:10:55;16.60;99.90
13606;DHT22;6874;52.084;5.090;2022-10-30T12:13:22;16.70;99.90
13606;DHT22;6874;52.084;5.090;2022-10-30T12:16:01;16.70;99.90
13606;DHT22;6874;52.084;5.090;2022-10-30T12:18:27;16.70;99.90
13606;DHT22;6874;52.084;5.090;2022-10-30T12:20:56;16.70;99.90
13606;DHT22;6874;52.084;5.090;2022-10-30T12:23:24;16.80;99.90
13606;DHT22;6874;52.084;5.090;2022-10-30T12:25:53;16.80;99.90
13606;DHT22;6874;52.084;5.090;2022-10-30T12:28:21;16.80;99.90
13606;DHT22;6874;52.084;5.090;2022-10-30T12:33:39;16.90;99.90
13606;DHT22;6874;52.084;5.090;2022-10-30T12:36:19;16.90;99.90
13606;DHT22;6874;52.084;5.090;2022-10-30T12:38:58;16.90;99.90
13606;DHT22;6874;52.084;5.090;2022-10-30T12:41:33;17.00;99.90
13606;DHT22;6874;52.084;5.090;2022-10-30T12:44:07;17.00;99.90
13606;DHT22;6874;52.084;5.090;2022-10-30T12:46:45;17.00;99.90
13606;DHT22;6874;52.084;5.090;2022-10-30T12:49:21;17.00;99.90
13606;DHT22;6874;52.084;5.090;2022-10-30T12:51:55;17.00;99.90
13606;DHT22;6874;52.084;5.090;2022-10-30T12:54:50;17.10;99.90
13606;DHT22;6874;52.084;5.090;2022-10-30T12:57:24;17.10;99.90
13606;DHT22;6874;52.084;5.090;2022-10-30T13:00:10;17.10;99.90
13606;DHT22;6874;52.084;5.090;2022-10-30T13:03:00;17.10;99.90
13606;DHT22;6874;52.084;5.090;2022-10-30T13:05:38;17.20;99.90
13606;DHT22;6874;52.084;5.090;2022-10-30T13:08:38;17.20;99.90
13606;DHT22;6874;52.084;5.090;2022-10-30T13:11:30;17.20;99.90
13606;DHT22;6874;52.084;5.090;2022-10-30T13:13:58;17.20;99.90
13606;DHT22;6874;52.084;5.090;2022-10-30T13:16:29;17.30;99.90
13606;DHT22;6874;52.084;5.090;2022-10-30T13:18:58;17.30;99.90
13606;DHT22;6874;52.084;5.090;2022-10-30T13:22:01;17.30;99.90
13606;DHT22;6874;52.084;5.090;2022-10-30T13:27:21;17.40;99.90
13606;DHT22;6874;52.084;5.090;2022-10-30T13:30:07;17.40;99.90
13606;DHT22;6874;52.084;5.090;2022-10-30T13:35:32;17.40;99.90
13606;DHT22;6874;52.084;5.090;2022-10-30T13:41:29;17.50;99.90
13606;DHT22;6874;52.084;5.090;2022-10-30T13:44:06;17.50;99.90
13606;DHT22;6874;52.084;5.090;2022-10-30T13:47:04;17.50;99.90
13606;DHT22;6874;52.084;5.090;2022-10-30T13:50:22;17.50;99.90
13606;DHT22;6874;52.084;5.090;2022-10-30T13:52:27;17.50;99.90
13606;DHT22;6874;52.084;5.090;2022-10-30T13:55:18;17.50;99.90
13606;DHT22;6874;52.084;5.090;2022-10-30T14:00:49;17.60;99.90
13606;DHT22;6874;52.084;5.090;2022-10-30T14:06:21;17.60;99.90
13606;DHT22;6874;52.084;5.090;2022-10-30T14:09:05;17.60;99.90
13606;DHT22;6874;52.084;5.090;2022-10-30T14:11:32;17.60;99.90
13606;DHT22;6874;52.084;5.090;2022-10-30T14:14:22;17.60;99.90
13606;DHT22;6874;52.084;5.090;2022-10-30T14:17:15;17.60;99.90
13606;DHT22;6874;52.084;5.090;2022-10-30T14:22:28;17.60;99.90
13606;DHT22;6874;52.084;5.090;2022-10-30T14:24:54;17.60;99.90
13606;DHT22;6874;52.084;5.090;2022-10-30T14:27:29;17.70;99.90
13606;DHT22;6874;52.084;5.090;2022-10-30T14:29:55;17.70;99.90
13606;DHT22;6874;52.084;5.090;2022-10-30T14:37:17;17.70;99.90
13606;DHT22;6874;52.084;5.090;2022-10-30T14:39:46;17.80;99.90
13606;DHT22;6874;52.084;5.090;2022-10-30T14:45:07;17.80;99.90
13606;DHT22;6874;52.084;5.090;2022-10-30T14:55:59;17.90;99.90
13606;DHT22;6874;52.084;5.090;2022-10-30T14:58:35;17.90;99.90
13606;DHT22;6874;52.084;5.090;2022-10-30T15:07:16;17.80;99.90
13606;DHT22;6874;52.084;5.090;2022-10-30T15:15:26;17.80;99.90
13606;DHT22;6874;52.084;5.090;2022-10-30T15:17:54;17.80;99.90
13606;DHT22;6874;52.084;5.090;2022-10-30T15:20:23;17.70;99.90
13606;DHT22;6874;52.084;5.090;2022-10-30T15:22:55;17.70;99.90
13606;DHT22;6874;52.084;5.090;2022-10-30T15:25:23;17.70;99.90
13606;DHT22;6874;52.084;5.090;2022-10-30T15:27:53;17.70;99.90
13606;DHT22;6874;52.084;5.090;2022-10-30T15:30:23;17.70;99.90
13606;DHT22;6874;52.084;5.090;2022-10-30T15:32:49;17.70;99.90
13606;DHT22;6874;52.084;5.090;2022-10-30T15:35:21;17.70;99.90
13606;DHT22;6874;52.084;5.090;2022-10-30T15:38:06;17.70;99.90
13606;DHT22;6874;52.084;5.090;2022-10-30T15:40:33;17.70;99.90
13606;DHT22;6874;52.084;5.090;2022-10-30T15:43:00;17.60;99.90
13606;DHT22;6874;52.084;5.090;2022-10-30T15:45:42;17.60;99.90
13606;DHT22;6874;52.084;5.090;2022-10-30T15:48:30;17.60;99.90
13606;DHT22;6874;52.084;5.090;2022-10-30T15:53:40;17.60;99.90
13606;DHT22;6874;52.084;5.090;2022-10-30T15:56:26;17.60;99.90
13606;DHT22;6874;52.084;5.090;2022-10-30T15:59:05;17.50;99.90
13606;DHT22;6874;52.084;5.090;2022-10-30T16:01:32;17.60;99.90
13606;DHT22;6874;52.084;5.090;2022-10-30T16:04:03;17.50;99.90
13606;DHT22;6874;52.084;5.090;2022-10-30T16:06:30;17.50;99.90
13606;DHT22;6874;52.084;5.090;2022-10-30T16:08:56;17.50;99.90
13606;DHT22;6874;52.084;5.090;2022-10-30T16:11:23;17.50;99.90
13606;DHT22;6874;52.084;5.090;2022-10-30T16:13:51;17.50;99.90
13606;DHT22;6874;52.084;5.090;2022-10-30T16:16:28;17.40;99.90
13606;DHT22;6874;52.084;5.090;2022-10-30T16:19:00;17.40;99.90
13606;DHT22;6874;52.084;5.090;2022-10-30T16:21:27;17.40;99.90
13606;DHT22;6874;52.084;5.090;2022-10-30T16:24:01;17.40;99.90
13606;DHT22;6874;52.084;5.090;2022-10-30T16:26:34;17.30;99.90
13606;DHT22;6874;52.084;5.090;2022-10-30T16:29:14;17.30;99.90
13606;DHT22;6874;52.084;5.090;2022-10-30T16:31:43;17.30;99.90
13606;DHT22;6874;52.084;5.090;2022-10-30T16:34:27;17.20;99.90
13606;DHT22;6874;52.084;5.090;2022-10-30T16:36:59;17.20;99.90
13606;DHT22;6874;52.084;5.090;2022-10-30T16:39:26;17.20;99.90
13606;DHT22;6874;52.084;5.090;2022-10-30T16:41:57;17.20;99.90
13606;DHT22;6874;52.084;5.090;2022-10-30T16:44:31;17.20;99.90
13606;DHT22;6874;52.084;5.090;2022-10-30T16:49:44;17.10;99.90
13606;DHT22;6874;52.084;5.090;2022-10-30T16:52:13;17.10;99.90
13606;DHT22;6874;52.084;5.090;2022-10-30T16:54:45;17.10;99.90
13606;DHT22;6874;52.084;5.090;2022-10-30T16:57:26;17.10;99.90
13606;DHT22;6874;52.084;5.090;2022-10-30T16:59:52;17.00;99.90
13606;DHT22;6874;52.084;5.090;2022-10-30T17:02:22;17.00;99.90
13606;DHT22;6874;52.084;5.090;2022-10-30T17:04:51;17.00;99.90
13606;DHT22;6874;52.084;5.090;2022-10-30T17:07:20;17.00;99.90
13606;DHT22;6874;52.084;5.090;2022-10-30T17:09:48;16.90;99.90
13606;DHT22;6874;52.084;5.090;2022-10-30T17:12:19;16.80;99.90
13606;DHT22;6874;52.084;5.090;2022-10-30T17:17:34;16.90;99.90
13606;DHT22;6874;52.084;5.090;2022-10-30T17:20:03;16.90;99.90
13606;DHT22;6874;52.084;5.090;2022-10-30T17:22:30;16.90;99.90
13606;DHT22;6874;52.084;5.090;2022-10-30T17:24:57;16.80;99.90
13606;DHT22;6874;52.084;5.090;2022-10-30T17:28:01;16.80;99.90
13606;DHT22;6874;52.084;5.090;2022-10-30T17:30:32;16.80;99.90
13606;DHT22;6874;52.084;5.090;2022-10-30T17:32:59;16.80;99.90
13606;DHT22;6874;52.084;5.090;2022-10-30T17:35:25;16.70;99.90
13606;DHT22;6874;52.084;5.090;2022-10-30T17:37:51;16.70;99.90
13606;DHT22;6874;52.084;5.090;2022-10-30T17:40:17;16.70;99.90
13606;DHT22;6874;52.084;5.090;2022-10-30T17:42:44;16.70;99.90
13606;DHT22;6874;52.084;5.090;2022-10-30T17:45:13;16.70;99.90
13606;DHT22;6874;52.084;5.090;2022-10-30T17:47:39;16.60;99.90
13606;DHT22;6874;52.084;5.090;2022-10-30T17:50:05;16.60;99.90
13606;DHT22;6874;52.084;5.090;2022-10-30T17:52:31;16.60;99.90